createdAt,value
2022-08-28T00:02:28.809Z,100.00
2022-08-28T00:04:59.019Z,100.00
2022-08-28T00:07:35.519Z,100.00
2022-08-28T00:10:17.521Z,100.00
2022-08-28T00:12:50.701Z,100.00
2022-08-28T00:15:26.426Z,100.00
2022-08-28T00:18:04.769Z,100.00
2022-08-28T00:20:39.715Z,100.00
2022-08-28T00:23:19.720Z,100.00
2022-08-28T00:25:50.010Z,100.00
2022-08-28T00:28:27.083Z,100.00
2022-08-28T00:31:07.832Z,100.00
2022-08-28T00:33:44.053Z,100.00
2022-08-28T00:36:17.804Z,100.00
2022-08-28T00:38:53.746Z,100.00
2022-08-28T00:41:30.713Z,100.00
2022-08-28T00:44:17.473Z,100.00
2022-08-28T00:46:53.442Z,100.00
2022-08-28T00:49:29.726Z,100.00
2022-08-28T00:52:10.802Z,100.00
2022-08-28T00:54:59.680Z,100.00
2022-08-28T00:57:35.511Z,100.00
2022-08-28T01:00:08.770Z,100.00
2022-08-28T01:02:46.935Z,100.00
2022-08-28T01:05:18.239Z,100.00
2022-08-28T01:07:48.892Z,100.00
2022-08-28T01:10:26.421Z,100.00
2022-08-28T01:12:57.619Z,100.00
2022-08-28T01:15:31.813Z,100.00
2022-08-28T01:18:08.512Z,100.00
2022-08-28T01:20:45.233Z,100.00
2022-08-28T01:23:24.621Z,100.00
2022-08-28T01:25:57.465Z,100.00
2022-08-28T01:28:29.851Z,100.00
2022-08-28T01:31:01.628Z,100.00
2022-08-28T01:33:31.647Z,100.00
2022-08-28T01:36:01.906Z,100.00
2022-08-28T01:38:31.720Z,100.00
2022-08-28T01:41:04.196Z,100.00
2022-08-28T01:43:33.923Z,100.00
2022-08-28T01:46:07.468Z,100.00
2022-08-28T01:48:40.209Z,100.00
2022-08-28T01:51:10.464Z,100.00
2022-08-28T01:53:46.401Z,100.00
2022-08-28T01:56:19.697Z,100.00
2022-08-28T01:58:50.201Z,100.00
2022-08-28T02:01:24.254Z,100.00
2022-08-28T02:03:54.698Z,100.00
2022-08-28T02:06:26.931Z,100.00
2022-08-28T02:08:56.955Z,100.00
2022-08-28T02:11:30.602Z,100.00
2022-08-28T02:14:00.434Z,100.00
2022-08-28T02:16:33.440Z,100.00
2022-08-28T02:19:03.771Z,100.00
2022-08-28T02:21:33.950Z,100.00
2022-08-28T02:24:04.636Z,100.00
2022-08-28T02:26:37.135Z,100.00
2022-08-28T02:29:07.238Z,100.00
2022-08-28T02:31:37.354Z,100.00
2022-08-28T02:34:08.239Z,100.00
2022-08-28T02:36:38.100Z,100.00
2022-08-28T02:39:07.883Z,100.00
2022-08-28T02:41:41.522Z,100.00
2022-08-28T02:44:11.140Z,100.00
2022-08-28T02:46:41.089Z,100.00
2022-08-28T02:49:10.903Z,100.00
2022-08-28T02:51:41.090Z,100.00
2022-08-28T02:54:10.842Z,100.00
2022-08-28T02:56:44.120Z,100.00
2022-08-28T02:59:14.074Z,100.00
2022-08-28T03:01:45.545Z,100.00
2022-08-28T03:04:15.806Z,100.00
2022-08-28T03:06:47.021Z,100.00
2022-08-28T03:09:19.261Z,100.00
2022-08-28T03:11:54.118Z,100.00
2022-08-28T03:14:26.497Z,100.00
2022-08-28T03:16:56.491Z,100.00
2022-08-28T03:19:26.198Z,100.00
2022-08-28T03:21:56.926Z,100.00
2022-08-28T03:24:26.596Z,100.00
2022-08-28T03:27:02.320Z,100.00
2022-08-28T03:29:36.292Z,100.00
2022-08-28T03:32:06.768Z,100.00
2022-08-28T03:34:36.673Z,100.00
2022-08-28T03:37:06.435Z,100.00
2022-08-28T03:39:38.179Z,100.00
2022-08-28T03:42:12.129Z,100.00
2022-08-28T03:44:43.797Z,100.00
2022-08-28T03:47:14.110Z,100.00
2022-08-28T03:49:45.793Z,100.00
2022-08-28T03:52:15.688Z,100.00
2022-08-28T03:54:45.581Z,100.00
2022-08-28T03:57:19.891Z,100.00
2022-08-28T03:59:50.580Z,100.00
2022-08-28T04:02:21.156Z,100.00
2022-08-28T04:04:52.940Z,100.00
2022-08-28T04:07:22.937Z,100.00
2022-08-28T04:09:52.680Z,100.00
2022-08-28T04:12:25.867Z,100.00
2022-08-28T04:14:57.701Z,100.00
2022-08-28T04:17:27.416Z,100.00
2022-08-28T04:19:57.413Z,100.00
2022-08-28T04:22:29.856Z,100.00
2022-08-28T04:24:59.573Z,100.00
2022-08-28T04:27:32.250Z,100.00
2022-08-28T04:30:02.403Z,100.00
2022-08-28T04:32:32.244Z,100.00
2022-08-28T04:35:02.201Z,100.00
2022-08-28T04:37:31.921Z,100.00
2022-08-28T04:40:01.734Z,100.00
2022-08-28T04:42:34.551Z,100.00
2022-08-28T04:45:04.856Z,100.00
2022-08-28T04:47:39.226Z,100.00
2022-08-28T04:50:10.978Z,100.00
2022-08-28T04:52:43.292Z,100.00
2022-08-28T04:55:13.695Z,100.00
2022-08-28T04:57:47.909Z,100.00
2022-08-28T05:00:18.473Z,100.00
2022-08-28T05:02:48.078Z,100.00
2022-08-28T05:05:17.890Z,100.00
2022-08-28T05:07:48.583Z,100.00
2022-08-28T05:10:18.510Z,100.00
2022-08-28T05:12:51.194Z,100.00
2022-08-28T05:15:21.675Z,100.00
2022-08-28T05:17:51.320Z,100.00
2022-08-28T05:20:21.108Z,100.00
2022-08-28T05:22:51.486Z,100.00
2022-08-28T05:25:21.646Z,100.00
2022-08-28T05:27:54.357Z,100.00
2022-08-28T05:30:24.808Z,100.00
2022-08-28T05:32:55.048Z,100.00
2022-08-28T05:35:25.233Z,100.00
2022-08-28T05:37:55.550Z,100.00
2022-08-28T05:40:25.459Z,100.00
2022-08-28T05:42:57.857Z,100.00
2022-08-28T05:45:28.475Z,100.00
2022-08-28T05:47:58.575Z,100.00
2022-08-28T05:50:28.858Z,100.00
2022-08-28T05:52:58.642Z,100.00
2022-08-28T05:55:28.424Z,100.00
2022-08-28T05:58:21.413Z,100.00
2022-08-28T06:00:51.082Z,100.00
2022-08-28T06:03:20.817Z,100.00
2022-08-28T06:06:00.056Z,100.00
2022-08-28T06:08:30.272Z,100.00
2022-08-28T06:11:01.115Z,100.00
2022-08-28T06:13:35.653Z,100.00
2022-08-28T06:16:07.263Z,100.00
2022-08-28T06:18:38.249Z,100.00
2022-08-28T06:21:08.370Z,100.00
2022-08-28T06:23:38.441Z,100.00
2022-08-28T06:26:09.443Z,100.00
2022-08-28T06:28:42.136Z,100.00
2022-08-28T06:31:24.270Z,100.00
2022-08-28T06:33:57.375Z,100.00
2022-08-28T06:36:27.993Z,100.00
2022-08-28T06:39:00.304Z,100.00
2022-08-28T06:41:32.221Z,100.00
2022-08-28T06:44:05.080Z,100.00
2022-08-28T06:46:37.617Z,100.00
2022-08-28T06:49:09.988Z,100.00
2022-08-28T06:51:40.331Z,100.00
2022-08-28T06:54:10.344Z,100.00
2022-08-28T06:56:41.308Z,100.00
2022-08-28T06:59:14.009Z,100.00
2022-08-28T07:01:44.082Z,100.00
2022-08-28T07:04:15.695Z,100.00
2022-08-28T07:06:53.679Z,100.00
2022-08-28T07:09:27.018Z,100.00
2022-08-28T07:11:57.123Z,100.00
2022-08-28T07:14:31.210Z,100.00
2022-08-28T07:17:01.028Z,100.00
2022-08-28T07:19:31.900Z,100.00
2022-08-28T07:22:02.970Z,100.00
2022-08-28T07:24:33.950Z,100.00
2022-08-28T07:27:07.333Z,100.00
2022-08-28T07:29:42.868Z,100.00
2022-08-28T07:32:14.177Z,100.00
2022-08-28T07:34:46.518Z,100.00
2022-08-28T07:37:18.371Z,100.00
2022-08-28T07:39:49.030Z,100.00
2022-08-28T07:42:35.560Z,100.00
2022-08-28T07:45:12.768Z,100.00
2022-08-28T07:47:44.742Z,100.00
2022-08-28T07:50:16.715Z,100.00
2022-08-28T07:52:48.348Z,100.00
2022-08-28T07:55:19.291Z,100.00
2022-08-28T07:57:50.784Z,100.00
2022-08-28T08:00:26.166Z,100.00
2022-08-28T08:02:56.464Z,100.00
2022-08-28T08:05:27.237Z,100.00
2022-08-28T08:07:59.508Z,100.00
2022-08-28T08:10:34.176Z,100.00
2022-08-28T08:13:05.635Z,100.00
2022-08-28T08:15:41.726Z,100.00
2022-08-28T08:18:12.165Z,100.00
2022-08-28T08:20:42.355Z,100.00
2022-08-28T08:23:12.828Z,100.00
2022-08-28T08:25:42.836Z,100.00
2022-08-28T08:28:13.180Z,100.00
2022-08-28T08:30:46.667Z,100.00
2022-08-28T08:33:16.891Z,100.00
2022-08-28T08:35:47.188Z,100.00
2022-08-28T08:38:17.545Z,100.00
2022-08-28T08:40:49.245Z,100.00
2022-08-28T08:43:21.495Z,100.00
2022-08-28T08:45:54.676Z,100.00
2022-08-28T08:48:32.410Z,100.00
2022-08-28T08:51:07.157Z,100.00
2022-08-28T08:53:48.198Z,100.00
2022-08-28T08:56:22.038Z,100.00
2022-08-28T08:58:56.922Z,100.00
2022-08-28T09:01:34.549Z,100.00
2022-08-28T09:04:16.628Z,100.00
2022-08-28T09:06:54.673Z,100.00
2022-08-28T09:09:32.966Z,85.51
2022-08-28T09:12:05.137Z,77.46
2022-08-28T09:14:44.781Z,66.97
2022-08-28T09:17:21.881Z,66.62
2022-08-28T09:19:51.762Z,62.87
2022-08-28T09:22:22.744Z,64.93
2022-08-28T09:24:52.592Z,67.18
2022-08-28T09:27:27.476Z,69.70
2022-08-28T09:30:07.419Z,67.04
2022-08-28T09:32:43.933Z,57.73
2022-08-28T09:35:19.237Z,57.01
2022-08-28T09:37:48.907Z,55.67
2022-08-28T09:40:25.997Z,53.81
2022-08-28T09:43:18.920Z,56.92
2022-08-28T09:45:57.019Z,53.11
2022-08-28T09:48:35.926Z,56.54
2022-08-28T09:51:09.804Z,57.92
2022-08-28T09:53:56.733Z,56.30
2022-08-28T09:56:33.655Z,52.27
2022-08-28T09:59:05.894Z,54.07
2022-08-28T10:01:47.007Z,51.26
2022-08-28T10:04:34.282Z,53.86
2022-08-28T10:07:07.897Z,54.86
2022-08-28T10:09:48.121Z,51.22
2022-08-28T10:12:33.044Z,50.97
2022-08-28T10:15:11.435Z,48.15
2022-08-28T10:17:50.482Z,50.79
2022-08-28T10:20:32.931Z,45.86
2022-08-28T10:23:14.456Z,47.94
2022-08-28T10:25:53.355Z,47.49
2022-08-28T10:28:39.123Z,46.51
2022-08-28T10:31:21.058Z,45.08
2022-08-28T10:34:11.453Z,42.95
2022-08-28T10:36:51.836Z,45.18
2022-08-28T10:39:45.183Z,46.98
2022-08-28T10:42:15.405Z,46.14
2022-08-28T10:44:54.908Z,46.84
2022-08-28T10:47:28.374Z,45.77
2022-08-28T10:50:05.142Z,45.01
2022-08-28T10:52:43.616Z,46.44
2022-08-28T10:55:20.320Z,45.54
2022-08-28T10:57:53.669Z,44.11
2022-08-28T11:00:28.160Z,41.65
2022-08-28T11:03:00.724Z,41.90
2022-08-28T11:05:36.113Z,41.72
2022-08-28T11:08:12.194Z,41.92
2022-08-28T11:10:54.736Z,42.83
2022-08-28T11:13:46.278Z,43.68
2022-08-28T11:16:22.992Z,43.05
2022-08-28T11:19:14.739Z,43.78
2022-08-28T11:21:50.035Z,46.01
2022-08-28T11:25:02.398Z,46.31
2022-08-28T11:27:36.538Z,43.84
2022-08-28T11:30:34.381Z,41.65
2022-08-28T11:33:15.423Z,41.32
2022-08-28T11:35:51.916Z,41.20
2022-08-28T11:38:51.711Z,42.02
2022-08-28T11:41:27.943Z,40.76
2022-08-28T11:44:28.527Z,41.67
2022-08-28T11:47:19.115Z,41.79
2022-08-28T11:49:50.260Z,40.44
2022-08-28T11:52:41.223Z,41.07
2022-08-28T11:55:25.009Z,42.95
2022-08-28T12:00:54.438Z,42.06
2022-08-28T12:03:36.945Z,40.29
2022-08-28T12:06:08.724Z,41.06
2022-08-28T12:09:11.042Z,41.50
2022-08-28T12:11:56.325Z,40.53
2022-08-28T12:15:08.026Z,40.61
2022-08-28T12:17:54.813Z,42.06
2022-08-28T12:21:07.132Z,41.63
2022-08-28T12:23:45.491Z,41.92
2022-08-28T12:26:30.230Z,42.50
2022-08-28T12:29:02.958Z,43.05
2022-08-28T12:32:18.894Z,43.34
2022-08-28T12:34:56.149Z,41.79
2022-08-28T12:37:39.771Z,41.49
2022-08-28T12:40:25.994Z,41.78
2022-08-28T12:43:00.319Z,40.69
2022-08-28T12:45:34.975Z,40.37
2022-08-28T12:48:08.781Z,40.55
2022-08-28T12:50:46.051Z,40.91
2022-08-28T12:53:22.907Z,42.63
2022-08-28T12:55:54.331Z,41.85
2022-08-28T12:58:36.874Z,41.87
2022-08-28T13:01:10.733Z,41.50
2022-08-28T13:03:49.039Z,42.44
2022-08-28T13:06:32.262Z,42.08
2022-08-28T13:09:05.340Z,41.73
2022-08-28T13:11:39.489Z,41.15
2022-08-28T13:14:11.144Z,40.55
2022-08-28T13:17:02.548Z,40.41
2022-08-28T13:19:34.883Z,40.78
2022-08-28T13:22:09.987Z,40.79
2022-08-28T13:24:44.361Z,40.24
2022-08-28T13:27:27.603Z,40.15
2022-08-28T13:30:04.463Z,40.17
2022-08-28T13:32:36.290Z,40.10
2022-08-28T13:35:25.110Z,41.02
2022-08-28T13:38:03.539Z,41.22
2022-08-28T13:41:00.193Z,41.53
2022-08-28T13:43:57.355Z,41.07
2022-08-28T13:46:27.353Z,41.19
2022-08-28T13:48:57.113Z,41.07
2022-08-28T13:51:29.408Z,40.87
2022-08-28T13:54:02.706Z,40.80
2022-08-28T13:56:32.666Z,40.39
2022-08-28T13:59:02.608Z,40.57
2022-08-28T14:01:44.659Z,41.05
2022-08-28T14:04:14.619Z,41.88
2022-08-28T14:06:44.637Z,41.54
2022-08-28T14:09:18.306Z,42.18
2022-08-28T14:11:48.582Z,42.31
2022-08-28T14:14:19.380Z,42.72
2022-08-28T14:16:50.530Z,43.34
2022-08-28T14:19:20.534Z,43.53
2022-08-28T14:21:52.181Z,44.22
2022-08-28T14:24:25.277Z,44.05
2022-08-28T14:26:57.042Z,44.48
2022-08-28T14:29:27.140Z,44.59
2022-08-28T14:31:57.636Z,43.94
2022-08-28T14:34:28.071Z,44.37
2022-08-28T14:36:58.220Z,44.20
2022-08-28T14:39:33.951Z,44.18
2022-08-28T14:42:04.498Z,42.93
2022-08-28T14:44:41.962Z,42.51
2022-08-28T14:47:14.335Z,43.03
2022-08-28T14:49:44.443Z,42.89
2022-08-28T14:52:16.218Z,43.12
2022-08-28T14:54:51.695Z,42.72
2022-08-28T14:57:21.524Z,42.98
2022-08-28T14:59:52.400Z,43.06
2022-08-28T15:02:23.527Z,43.62
2022-08-28T15:04:54.906Z,43.77
2022-08-28T15:07:25.433Z,43.48
2022-08-28T15:09:57.938Z,43.34
2022-08-28T15:12:27.758Z,43.40
2022-08-28T15:14:59.402Z,43.86
2022-08-28T15:17:33.791Z,42.58
2022-08-28T15:20:05.793Z,43.03
2022-08-28T15:22:36.128Z,44.50
2022-08-28T15:25:09.611Z,44.11
2022-08-28T15:27:40.288Z,44.95
2022-08-28T15:30:11.712Z,44.08
2022-08-28T15:32:43.275Z,44.36
2022-08-28T15:35:14.136Z,44.55
2022-08-28T15:37:44.037Z,44.65
2022-08-28T15:40:29.785Z,45.45
2022-08-28T15:42:59.796Z,46.91
2022-08-28T15:45:29.718Z,46.73
2022-08-28T15:48:01.082Z,46.70
2022-08-28T15:50:30.793Z,47.12
2022-08-28T15:53:00.613Z,47.07
2022-08-28T15:55:34.130Z,45.93
2022-08-28T15:58:13.894Z,46.33
2022-08-28T16:00:44.563Z,47.66
2022-08-28T16:03:14.715Z,48.30
2022-08-28T16:05:46.941Z,48.66
2022-08-28T16:08:17.233Z,48.80
2022-08-28T16:10:54.000Z,49.64
2022-08-28T16:13:24.595Z,49.34
2022-08-28T16:15:54.778Z,49.47
2022-08-28T16:18:25.909Z,49.57
2022-08-28T16:20:59.523Z,49.68
2022-08-28T16:23:31.222Z,50.62
2022-08-28T16:26:04.829Z,50.43
2022-08-28T16:28:38.228Z,50.08
2022-08-28T16:31:19.327Z,50.50
2022-08-28T16:33:51.534Z,51.00
2022-08-28T16:36:23.916Z,50.54
2022-08-28T16:39:03.535Z,51.59
2022-08-28T16:41:39.478Z,52.13
2022-08-28T16:44:09.751Z,52.92
2022-08-28T16:46:39.908Z,53.52
2022-08-28T16:49:11.090Z,53.93
2022-08-28T16:51:40.970Z,55.16
2022-08-28T16:54:10.654Z,55.30
2022-08-28T16:56:43.424Z,55.26
2022-08-28T16:59:16.639Z,55.31
2022-08-28T17:01:52.998Z,55.60
2022-08-28T17:04:24.092Z,56.01
2022-08-28T17:06:53.931Z,56.86
2022-08-28T17:09:25.562Z,56.79
2022-08-28T17:11:58.174Z,57.34
2022-08-28T17:14:29.921Z,57.58
2022-08-28T17:17:01.829Z,57.04
2022-08-28T17:19:31.730Z,56.69
2022-08-28T17:22:13.862Z,56.21
2022-08-28T17:24:44.075Z,56.05
2022-08-28T17:27:22.466Z,56.29
2022-08-28T17:29:53.670Z,56.66
2022-08-28T17:32:23.862Z,56.76
2022-08-28T17:34:56.230Z,58.05
2022-08-28T17:37:26.539Z,57.94
2022-08-28T17:39:56.310Z,58.57
2022-08-28T17:42:29.256Z,58.90
2022-08-28T17:44:59.284Z,59.69
2022-08-28T17:47:30.940Z,60.31
2022-08-28T17:50:01.817Z,60.70
2022-08-28T17:52:34.184Z,62.12
2022-08-28T17:55:04.629Z,62.66
2022-08-28T17:57:37.321Z,63.05
2022-08-28T18:00:12.601Z,63.66
2022-08-28T18:02:43.833Z,64.50
2022-08-28T18:05:16.843Z,65.50
2022-08-28T18:07:47.660Z,65.91
2022-08-28T18:10:17.932Z,65.63
2022-08-28T18:12:51.399Z,66.31
2022-08-28T18:15:22.456Z,67.86
2022-08-28T18:17:52.852Z,68.64
2022-08-28T18:20:22.915Z,69.35
2022-08-28T18:22:54.700Z,69.69
2022-08-28T18:25:37.373Z,70.98
2022-08-28T18:28:24.058Z,71.27
2022-08-28T18:30:56.414Z,71.92
2022-08-28T18:33:27.325Z,72.55
2022-08-28T18:35:57.151Z,73.15
2022-08-28T18:38:29.237Z,73.89
2022-08-28T18:41:00.177Z,74.24
2022-08-28T18:43:33.242Z,74.56
2022-08-28T18:46:05.278Z,75.69
2022-08-28T18:48:36.172Z,76.21
2022-08-28T18:51:08.752Z,76.67
2022-08-28T18:53:42.388Z,77.53
2022-08-28T18:56:13.718Z,78.41
2022-08-28T18:58:46.964Z,78.77
2022-08-28T19:01:17.402Z,79.85
2022-08-28T19:03:47.291Z,82.06
2022-08-28T19:06:18.391Z,82.61
2022-08-28T19:08:48.811Z,83.20
2022-08-28T19:11:22.311Z,83.67
2022-08-28T19:13:55.153Z,83.45
2022-08-28T19:16:26.044Z,84.14
2022-08-28T19:18:56.355Z,84.91
2022-08-28T19:21:27.674Z,85.95
2022-08-28T19:23:57.763Z,86.69
2022-08-28T19:26:28.107Z,87.50
2022-08-28T19:29:01.566Z,88.68
2022-08-28T19:31:33.037Z,88.97
2022-08-28T19:34:02.871Z,89.49
2022-08-28T19:36:33.706Z,90.52
2022-08-28T19:39:03.709Z,91.00
2022-08-28T19:41:33.511Z,91.07
2022-08-28T19:44:06.700Z,92.05
2022-08-28T19:46:38.859Z,92.65
2022-08-28T19:49:09.614Z,93.93
2022-08-28T19:51:42.795Z,94.72
2022-08-28T19:54:15.104Z,95.24
2022-08-28T19:56:48.927Z,95.53
2022-08-28T19:59:25.217Z,96.09
2022-08-28T20:01:56.988Z,96.88
2022-08-28T20:04:27.144Z,97.02
2022-08-28T20:06:57.146Z,97.51
2022-08-28T20:09:27.417Z,98.38
2022-08-28T20:11:57.865Z,98.58
2022-08-28T20:14:30.579Z,98.36
2022-08-28T20:17:01.434Z,99.85
2022-08-28T20:19:31.588Z,99.36
2022-08-28T20:22:01.478Z,99.74
2022-08-28T20:24:31.672Z,100.00
2022-08-28T20:27:01.618Z,100.00
2022-08-28T20:29:39.519Z,100.00
2022-08-28T20:32:09.997Z,100.00
2022-08-28T20:34:44.682Z,100.00
2022-08-28T20:37:17.536Z,100.00
2022-08-28T20:39:48.391Z,100.00
2022-08-28T20:42:18.817Z,100.00
2022-08-28T20:44:51.256Z,100.00
2022-08-28T20:47:23.566Z,100.00
2022-08-28T20:49:53.879Z,100.00
2022-08-28T20:52:23.999Z,100.00
2022-08-28T20:54:53.715Z,100.00
2022-08-28T20:57:24.944Z,100.00
2022-08-28T21:00:00.207Z,100.00
2022-08-28T21:02:33.396Z,100.00
2022-08-28T21:05:04.225Z,100.00
2022-08-28T21:07:36.399Z,100.00
2022-08-28T21:10:08.297Z,100.00
2022-08-28T21:12:38.957Z,100.00
2022-08-28T21:15:15.786Z,100.00
2022-08-28T21:17:45.602Z,100.00
2022-08-28T21:20:20.286Z,100.00
2022-08-28T21:22:51.188Z,100.00
2022-08-28T21:25:24.648Z,100.00
2022-08-28T21:27:55.283Z,100.00
2022-08-28T21:30:29.646Z,100.00
2022-08-28T21:33:00.111Z,100.00
2022-08-28T21:35:29.849Z,100.00
2022-08-28T21:37:59.591Z,100.00
2022-08-28T21:40:29.707Z,100.00
2022-08-28T21:42:59.755Z,100.00
2022-08-28T21:45:32.347Z,100.00
2022-08-28T21:48:02.598Z,100.00
2022-08-28T21:50:32.477Z,100.00
2022-08-28T21:53:03.202Z,100.00
2022-08-28T21:55:33.151Z,100.00
2022-08-28T21:58:02.808Z,100.00
2022-08-28T22:00:35.627Z,100.00
2022-08-28T22:03:05.653Z,100.00
2022-08-28T22:05:35.881Z,100.00
2022-08-28T22:08:07.347Z,100.00
2022-08-28T22:10:40.379Z,100.00
2022-08-28T22:13:11.641Z,100.00
2022-08-28T22:15:46.808Z,100.00
2022-08-28T22:18:18.370Z,100.00
2022-08-28T22:21:03.817Z,100.00
2022-08-28T22:23:35.376Z,100.00
2022-08-28T22:26:07.244Z,100.00
2022-08-28T22:28:37.773Z,100.00
2022-08-28T22:31:10.443Z,100.00
2022-08-28T22:33:40.465Z,100.00
2022-08-28T22:36:11.113Z,100.00
2022-08-28T22:38:42.597Z,100.00
2022-08-28T22:41:24.361Z,100.00
2022-08-28T22:43:56.608Z,100.00
2022-08-28T22:46:30.655Z,100.00
2022-08-28T22:49:00.436Z,100.00
2022-08-28T22:51:31.863Z,100.00
2022-08-28T22:54:01.686Z,100.00
2022-08-28T22:56:31.769Z,100.00
2022-08-28T22:59:01.589Z,100.00
2022-08-28T23:01:34.470Z,100.00
2022-08-28T23:04:05.766Z,100.00
2022-08-28T23:06:35.757Z,100.00
2022-08-28T23:09:06.112Z,100.00
2022-08-28T23:11:36.116Z,100.00
2022-08-28T23:14:06.436Z,100.00
2022-08-28T23:16:41.721Z,100.00
2022-08-28T23:19:13.473Z,100.00
2022-08-28T23:21:44.550Z,100.00
2022-08-28T23:24:16.225Z,100.00
2022-08-28T23:26:48.142Z,100.00
2022-08-28T23:29:18.430Z,100.00
2022-08-28T23:31:52.796Z,100.00
2022-08-28T23:34:24.709Z,100.00
2022-08-28T23:36:54.837Z,100.00
2022-08-28T23:39:25.503Z,100.00
2022-08-28T23:41:57.820Z,100.00
2022-08-28T23:44:28.202Z,100.00
2022-08-28T23:47:01.559Z,100.00
2022-08-28T23:49:32.990Z,100.00
2022-08-28T23:52:02.969Z,100.00
2022-08-28T23:54:32.629Z,100.00
2022-08-28T23:57:02.749Z,100.00
2022-08-28T23:59:35.196Z,100.00
